Time;durP1;ratioP1;P1;durP2;ratioP2;P2;SDS_P1;SDS_P2;PMS_P1;PMS_P2;Temp;Humidity;BMP_temperature;BMP_pressure;BME280_temperature;BME280_humidity;BME280_pressure;Samples;Min_cycle;Max_cycle;Signal;HPM_P1;HPM_P2
2023/07/10 04:00:55;;;;;;;11.15;5.45;;;24.60;99.90;;;;;;5767342;23;20500;-71
2023/07/10 04:03:23;;;;;;;12.45;5.35;;;24.50;99.90;;;;;;5039679;28;20025;-71
2023/07/10 04:05:52;;;;;;;9.23;5.95;;;24.50;99.90;;;;;;5039318;28;20090;-71
2023/07/10 04:08:19;;;;;;;8.73;4.70;;;24.40;99.90;;;;;;5057359;28;20037;-70
2023/07/10 04:10:52;;;;;;;10.95;5.47;;;24.40;99.90;;;;;;5050808;28;20029;-71
2023/07/10 04:13:18;;;;;;;10.20;5.53;;;24.40;99.90;;;;;;5018716;28;20490;-70
2023/07/10 04:15:54;;;;;;;;;;;24.60;99.90;;;;;;5022833;23;20053;-73
2023/07/10 04:18:19;;;;;;;9.20;6.10;;;24.50;99.90;;;;;;4995433;28;19914;-73
2023/07/10 04:20:45;;;;;;;;;;;24.50;99.90;;;;;;4978037;28;20029;-73
2023/07/10 04:23:10;;;;;;;9.38;6.10;;;24.50;99.90;;;;;;4977644;28;19906;-73
2023/07/10 04:25:36;;;;;;;;;;;24.60;99.90;;;;;;4995261;28;20105;-73
2023/07/10 04:28:02;;;;;;;9.15;5.25;;;24.60;99.90;;;;;;4995637;28;19906;-73
2023/07/10 04:30:27;;;;;;;;;;;24.60;99.90;;;;;;4978023;28;20027;-73
2023/07/10 04:32:53;;;;;;;9.13;5.65;;;24.70;99.90;;;;;;4978429;28;20385;-73
2023/07/10 04:35:18;;;;;;;;;;;24.70;99.90;;;;;;4996489;28;20438;-73
2023/07/10 04:37:44;;;;;;;10.57;5.80;;;24.60;99.90;;;;;;4975894;28;20334;-73
2023/07/10 04:40:10;;;;;;;;;;;24.60;99.90;;;;;;4979397;28;20034;-74
2023/07/10 04:42:35;;;;;;;9.27;5.50;;;24.60;99.90;;;;;;4979299;28;19905;-74
2023/07/10 04:45:01;;;;;;;;;;;24.70;99.90;;;;;;4979458;28;20022;-73
2023/07/10 04:47:26;;;;;;;13.82;5.90;;;24.70;99.90;;;;;;4997892;28;19976;-73
2023/07/10 04:49:52;;;;;;;;;;;24.60;99.90;;;;;;4999046;28;20026;-73
2023/07/10 04:52:17;;;;;;;11.05;5.20;;;24.60;99.90;;;;;;4996504;28;19964;-73
2023/07/10 04:54:43;;;;;;;;;;;24.40;99.90;;;;;;4975907;28;20022;-73
2023/07/10 04:57:08;;;;;;;8.98;5.63;;;24.50;99.90;;;;;;4976194;28;19916;-73
2023/07/10 04:59:33;;;;;;;;;;;24.70;99.90;;;;;;4960698;28;20103;-73
2023/07/10 05:01:59;;;;;;;8.15;5.25;;;24.70;99.90;;;;;;4981386;28;20027;-70
2023/07/10 05:04:24;;;;;;;;;;;24.70;99.90;;;;;;4979285;28;20031;-74
2023/07/10 05:06:57;;;;;;;9.43;5.70;;;24.70;99.90;;;;;;4979119;28;19910;-73
2023/07/10 05:09:22;;;;;;;7.70;5.03;;;24.50;99.90;;;;;;4977798;28;20057;-74
2023/07/10 05:11:48;;;;;;;;;;;24.50;99.90;;;;;;4962492;28;20023;-74
2023/07/10 05:14:13;;;;;;;8.07;5.25;;;24.50;99.90;;;;;;4978091;28;19914;-70
2023/07/10 05:16:39;;;;;;;;;;;24.60;99.90;;;;;;4981496;28;20023;-74
2023/07/10 05:19:04;;;;;;;8.50;6.55;;;24.60;99.90;;;;;;4963689;28;19906;-74
2023/07/10 05:21:30;;;;;;;;;;;24.60;99.90;;;;;;4980677;28;20398;-75
2023/07/10 05:23:55;;;;;;;10.63;5.85;;;24.40;99.90;;;;;;4980241;28;20570;-76
2023/07/10 05:26:21;;;;;;;;;;;24.60;99.90;;;;;;4994028;28;20105;-67
2023/07/10 05:28:46;;;;;;;10.70;5.82;;;24.70;99.90;;;;;;4981080;28;19910;-68
2023/07/10 05:31:12;;;;;;;;;;;24.70;99.90;;;;;;4998748;28;20030;-69
2023/07/10 05:33:39;;;;;;;8.43;5.40;;;24.70;99.90;;;;;;4998680;28;19956;-68
2023/07/10 05:36:07;;;;;;;8.23;6.32;;;24.80;99.90;;;;;;4999316;28;20030;-68
2023/07/10 05:38:34;;;;;;;12.98;7.43;;;24.80;99.90;;;;;;4999110;28;20119;-68
2023/07/10 05:41:00;;;;;;;10.20;5.85;;;24.90;99.90;;;;;;4999968;28;20034;-68
2023/07/10 05:43:27;;;;;;;12.93;6.50;;;24.90;99.90;;;;;;4999844;28;20102;-74
2023/07/10 05:45:53;;;;;;;8.02;5.55;;;25.10;99.90;;;;;;4982893;28;20026;-73
2023/07/10 05:48:19;;;;;;;;;;;25.10;99.90;;;;;;5001831;28;20026;-74
2023/07/10 05:50:47;;;;;;;7.95;5.20;;;25.20;99.90;;;;;;4988267;28;19950;-75
2023/07/10 05:53:13;;;;;;;9.85;5.78;;;25.30;99.90;;;;;;4997885;28;20122;-75
2023/07/10 05:55:46;;;;;;;8.20;5.65;;;25.20;99.90;;;;;;4996748;28;20519;-74
2023/07/10 05:58:13;;;;;;;13.35;5.82;;;25.30;99.90;;;;;;4998849;28;20030;-71
2023/07/10 06:00:42;;;;;;;9.57;5.10;;;25.40;99.90;;;;;;4997192;28;20034;-72
2023/07/10 06:03:08;;;;;;;12.50;5.47;;;25.50;99.90;;;;;;4998626;28;20057;-74
2023/07/10 06:05:33;;;;;;;;;;;25.60;99.90;;;;;;4999697;28;20022;-73
2023/07/10 06:07:59;;;;;;;10.32;5.10;;;25.70;99.90;;;;;;4980558;28;19914;-70
2023/07/10 06:10:24;;;;;;;12.63;6.28;;;25.70;99.90;;;;;;4996617;28;20022;-70
2023/07/10 06:12:50;;;;;;;9.43;5.30;;;25.80;99.90;;;;;;4995853;28;20049;-74
2023/07/10 06:15:16;;;;;;;9.13;5.13;;;25.90;99.90;;;;;;4974204;28;20031;-75
2023/07/10 06:17:41;;;;;;;;;;;26.00;99.90;;;;;;4983829;28;20105;-75
2023/07/10 06:20:07;;;;;;;9.30;5.45;;;26.00;99.90;;;;;;4997694;28;19906;-74
2023/07/10 06:22:32;;;;;;;;;;;25.90;99.90;;;;;;4979201;28;20026;-74
2023/07/10 06:24:58;;;;;;;11.48;5.38;;;25.90;99.90;;;;;;4971084;28;19921;-73
2023/07/10 06:27:24;;;;;;;9.52;5.32;;;25.90;99.90;;;;;;4982957;28;20033;-75
2023/07/10 06:29:51;;;;;;;9.23;4.50;;;26.10;99.90;;;;;;4968237;28;20037;-75
2023/07/10 06:32:18;;;;;;;10.98;5.20;;;26.10;99.90;;;;;;4983987;28;20051;-75
2023/07/10 06:34:43;;;;;;;8.70;5.05;;;26.30;99.90;;;;;;4974285;28;20030;-75
2023/07/10 06:37:08;;;;;;;;;;;26.20;99.90;;;;;;4975695;28;20077;-75
2023/07/10 06:39:34;;;;;;;8.52;4.90;;;26.40;99.90;;;;;;4958528;28;19929;-75
2023/07/10 06:41:59;;;;;;;9.13;5.28;;;26.30;99.90;;;;;;4958383;28;20035;-76
2023/07/10 06:44:25;;;;;;;9.55;4.90;;;26.50;99.90;;;;;;4973758;28;20074;-77
2023/07/10 06:46:50;;;;;;;8.90;5.70;;;26.50;99.90;;;;;;4968788;28;20027;-73
2023/07/10 06:49:16;;;;;;;10.23;6.00;;;26.60;99.90;;;;;;4991916;28;20033;-72
2023/07/10 06:51:42;;;;;;;15.73;5.43;;;26.70;99.90;;;;;;5000241;28;20034;-75
2023/07/10 06:54:08;;;;;;;7.47;5.43;;;26.70;99.90;;;;;;5003716;28;20085;-75
2023/07/10 06:56:34;;;;;;;9.98;5.30;;;26.80;99.90;;;;;;4981537;28;20073;-74
2023/07/10 06:59:00;;;;;;;8.40;5.05;;;26.90;99.90;;;;;;4975749;28;20033;-77
2023/07/10 07:01:25;;;;;;;6.88;4.63;;;27.00;99.90;;;;;;4975540;28;20032;-75
2023/07/10 07:03:51;;;;;;;10.45;5.30;;;27.00;99.90;;;;;;4975708;28;20030;-75
2023/07/10 07:06:17;;;;;;;12.10;5.22;;;27.00;99.90;;;;;;4975975;28;20022;-76
2023/07/10 07:08:47;;;;;;;9.88;5.50;;;27.10;99.90;;;;;;4958353;28;20391;-76
2023/07/10 07:11:12;;;;;;;11.45;5.75;;;27.10;99.90;;;;;;4974725;28;20029;-76
2023/07/10 07:13:38;;;;;;;12.45;5.55;;;27.20;99.90;;;;;;4974347;28;20106;-76
2023/07/10 07:16:04;;;;;;;18.40;5.90;;;27.20;99.90;;;;;;4975333;28;20369;-76
2023/07/10 07:18:33;;;;;;;8.18;5.40;;;27.40;99.90;;;;;;4976032;28;20027;-76
2023/07/10 07:20:59;;;;;;;9.43;5.13;;;27.60;99.90;;;;;;4996359;28;20041;-76
2023/07/10 07:23:26;;;;;;;8.82;5.68;;;27.70;99.90;;;;;;4979479;28;20093;-76
2023/07/10 07:25:54;;;;;;;7.60;5.07;;;27.90;99.90;;;;;;4970554;28;20042;-75
2023/07/10 07:28:20;;;;;;;8.73;5.53;;;28.00;99.90;;;;;;4978117;28;20038;-75
2023/07/10 07:30:48;;;;;;;9.27;5.50;;;28.00;99.90;;;;;;4994998;28;20093;-76
2023/07/10 07:33:15;;;;;;;10.73;5.80;;;28.20;99.90;;;;;;4977974;28;20057;-76
2023/07/10 07:35:40;;;;;;;7.28;4.80;;;28.30;99.90;;;;;;4994745;28;20022;-76
2023/07/10 07:38:06;;;;;;;10.07;5.40;;;28.30;99.90;;;;;;4995140;28;20475;-76
2023/07/10 07:40:32;;;;;;;8.25;5.07;;;28.40;99.90;;;;;;4977504;28;20022;-75
2023/07/10 07:42:57;;;;;;;9.13;5.93;;;28.50;99.90;;;;;;4978092;28;20105;-75
2023/07/10 07:45:23;;;;;;;7.93;4.72;;;28.70;99.90;;;;;;4977410;28;20046;-76
2023/07/10 07:47:49;;;;;;;7.45;5.07;;;28.70;99.90;;;;;;4977525;28;20030;-74
2023/07/10 07:50:14;;;;;;;9.55;5.03;;;28.80;99.90;;;;;;4994946;28;20018;-76
2023/07/10 07:52:40;;;;;;;10.65;4.95;;;29.20;99.90;;;;;;4994810;28;20098;-75
2023/07/10 07:55:06;;;;;;;9.02;5.10;;;29.40;99.90;;;;;;4995036;28;20030;-76
2023/07/10 07:57:32;;;;;;;8.10;5.50;;;29.50;99.90;;;;;;4994622;28;20034;-76
2023/07/10 07:59:59;;;;;;;8.27;4.95;;;29.70;99.90;;;;;;4995098;28;20033;-76
2023/07/10 08:02:25;;;;;;;6.82;4.78;;;29.80;99.90;;;;;;4978357;28;20447;-76
2023/07/10 08:04:51;;;;;;;6.78;4.80;;;29.80;99.90;;;;;;4994280;28;20109;-76
2023/07/10 08:07:16;;;;;;;9.07;5.35;;;30.00;99.90;;;;;;4995460;28;20066;-76
2023/07/10 08:09:42;;;;;;;14.85;7.35;;;30.10;99.90;;;;;;4994915;28;20113;-76
2023/07/10 08:12:08;;;;;;;5.70;4.78;;;30.30;99.90;;;;;;4995389;28;20034;-76
2023/07/10 08:14:34;;;;;;;6.72;4.75;;;30.40;99.90;;;;;;4994114;28;20030;-76
2023/07/10 08:17:00;;;;;;;9.23;5.38;;;30.80;99.90;;;;;;4976795;28;20048;-77
2023/07/10 08:19:26;;;;;;;9.98;5.50;;;31.80;99.90;;;;;;4977771;28;20027;-76
2023/07/10 08:21:55;;;;;;;14.27;5.05;;;33.40;97.60;;;;;;4994375;28;20026;-76
2023/07/10 08:24:20;;;;;;;8.30;4.93;;;34.10;95.70;;;;;;4994115;28;20067;-76
2023/07/10 08:26:46;;;;;;;8.63;5.00;;;34.10;94.90;;;;;;4996590;28;20049;-76
2023/07/10 08:29:29;;;;;;;8.63;5.53;;;33.70;95.10;;;;;;4976700;28;20113;-76
2023/07/10 08:31:56;;;;;;;8.23;5.03;;;33.10;95.20;;;;;;4976813;28;20376;-76
2023/07/10 08:34:23;;;;;;;10.35;5.13;;;32.60;95.70;;;;;;4994803;28;20022;-76
2023/07/10 08:36:52;;;;;;;8.32;5.55;;;32.30;96.10;;;;;;4977772;28;20161;-76
2023/07/10 08:39:17;;;;;;;9.02;4.85;;;32.10;96.30;;;;;;4998211;28;20014;-76
2023/07/10 08:41:43;;;;;;;9.77;4.75;;;31.70;96.50;;;;;;4999290;28;20022;-76
2023/07/10 08:44:11;;;;;;;7.45;4.90;;;31.40;97.30;;;;;;4999095;28;20106;-77
2023/07/10 08:46:37;;;;;;;10.77;5.88;;;32.40;96.20;;;;;;4980392;28;20468;-76
2023/07/10 08:49:22;;;;;;;8.23;5.00;;;33.60;95.00;;;;;;4998204;28;20029;-75
2023/07/10 08:52:11;;;;;;;6.38;4.75;;;35.10;93.20;;;;;;4998051;28;20120;-76
2023/07/10 08:54:37;;;;;;;8.73;5.10;;;35.50;92.00;;;;;;4997930;28;20027;-76
2023/07/10 08:57:15;;;;;;;8.65;4.60;;;35.90;91.60;;;;;;4997744;28;20046;-76
2023/07/10 08:59:56;;;;;;;6.57;4.72;;;36.70;90.70;;;;;;4997775;28;20049;-75
2023/07/10 09:02:37;;;;;;;11.30;4.85;;;37.80;88.10;;;;;;4997604;28;20479;-76
2023/07/10 09:05:06;;;;;;;9.20;4.80;;;37.70;87.10;;;;;;4997651;28;20037;-75
2023/07/10 09:07:42;;;;;;;9.75;4.93;;;38.00;86.00;;;;;;4998732;28;20410;-76
2023/07/10 09:10:20;;;;;;;6.10;4.55;;;38.60;84.30;;;;;;4980362;28;20046;-76
2023/07/10 09:12:58;;;;;;;8.13;4.50;;;38.10;84.10;;;;;;4998109;28;20026;-76
2023/07/10 09:15:41;;;;;;;7.15;4.78;;;38.30;83.70;;;;;;4997518;28;20026;-77
2023/07/10 09:18:13;;;;;;;9.63;5.15;;;38.60;82.80;;;;;;4998072;28;20033;-76
2023/07/10 09:20:39;;;;;;;13.18;4.53;;;38.90;81.20;;;;;;4980934;28;20490;-76
2023/07/10 09:23:24;;;;;;;10.23;4.68;;;38.80;80.40;;;;;;4980652;28;20022;-76
2023/07/10 09:25:55;;;;;;;7.15;4.75;;;38.20;80.90;;;;;;4980071;28;20128;-76
2023/07/10 09:28:22;;;;;;;6.30;4.65;;;38.30;81.10;;;;;;4979956;28;20030;-76
2023/07/10 09:31:16;;;;;;;8.48;4.88;;;38.60;80.10;;;;;;5007950;28;20026;-76
2023/07/10 09:33:50;;;;;;;9.43;5.45;;;38.90;79.60;;;;;;5009067;28;20494;-76
2023/07/10 09:36:18;;;;;;;10.13;5.45;;;39.90;78.70;;;;;;4980880;28;20030;-76
2023/07/10 09:38:47;;;;;;;7.72;4.47;;;40.40;76.50;;;;;;4980488;28;20392;-76
2023/07/10 09:41:24;;;;;;;7.22;4.35;;;40.50;75.50;;;;;;4997617;28;20030;-76
2023/07/10 09:44:12;;;;;;;8.10;4.40;;;40.70;74.60;;;;;;4998336;28;20241;-76
2023/07/10 09:46:38;;;;;;;6.45;4.53;;;40.90;73.80;;;;;;4979657;28;20026;-77
2023/07/10 09:49:14;;;;;;;5.47;4.18;;;41.10;73.20;;;;;;4996690;28;20085;-75
2023/07/10 09:51:58;;;;;;;7.00;4.05;;;41.50;71.80;;;;;;4980392;28;20053;-76
2023/07/10 09:54:25;;;;;;;9.50;4.60;;;41.50;71.70;;;;;;4997461;28;20033;-76
2023/07/10 09:56:53;;;;;;;7.90;5.03;;;41.10;71.30;;;;;;4998233;28;20027;-76
2023/07/10 09:59:22;;;;;;;8.85;4.43;;;40.80;71.00;;;;;;4998037;28;20026;-76
2023/07/10 10:01:52;;;;;;;8.23;4.60;;;40.80;70.90;;;;;;4981609;28;20442;-75
2023/07/10 10:04:31;;;;;;;5.28;4.43;;;40.50;70.70;;;;;;4983940;28;20125;-75
2023/07/10 10:07:05;;;;;;;6.53;4.30;;;40.70;70.90;;;;;;4983383;28;20022;-76
2023/07/10 10:09:31;;;;;;;8.68;4.30;;;40.50;70.00;;;;;;4979994;28;20065;-76
2023/07/10 10:12:14;;;;;;;5.95;4.25;;;40.00;70.60;;;;;;4979928;28;20050;-75
2023/07/10 10:14:58;;;;;;;6.57;4.35;;;40.30;70.20;;;;;;5018583;23;20121;-71
2023/07/10 10:17:25;;;;;;;6.57;4.53;;;39.60;70.20;;;;;;4995823;28;20018;-71
2023/07/10 10:19:57;;;;;;;7.07;4.57;;;39.20;71.60;;;;;;4978927;28;20394;-71
2023/07/10 10:22:28;;;;;;;6.50;4.40;;;39.50;71.00;;;;;;4978547;28;20030;-71
2023/07/10 10:24:53;;;;;;;7.65;4.68;;;38.80;71.10;;;;;;4978370;28;20383;-70
2023/07/10 10:27:42;;;;;;;5.78;4.72;;;39.20;71.20;;;;;;4978335;28;20030;-70
2023/07/10 10:30:17;;;;;;;5.95;4.35;;;39.60;70.40;;;;;;4995668;28;20026;-71
2023/07/10 10:33:20;;;;;;;7.22;4.93;;;40.40;69.10;;;;;;4996204;28;20022;-70
2023/07/10 10:35:59;;;;;;;6.90;4.38;;;40.40;68.40;;;;;;4977949;28;20022;-70
2023/07/10 10:38:39;;;;;;;5.90;4.30;;;40.80;67.80;;;;;;4978444;28;20030;-71
2023/07/10 10:41:36;;;;;;;8.70;4.30;;;40.50;66.90;;;;;;4977851;28;20057;-70
2023/07/10 10:44:44;;;;;;;7.35;4.55;;;40.70;66.60;;;;;;4978335;28;20395;-70
2023/07/10 10:47:29;;;;;;;10.13;3.80;;;40.70;65.20;;;;;;4977047;28;20039;-70
2023/07/10 10:50:24;;;;;;;4.75;3.83;;;40.20;64.80;;;;;;4995246;28;20022;-71
2023/07/10 10:53:00;;;;;;;5.45;4.03;;;40.40;64.90;;;;;;4994899;28;20545;-70
2023/07/10 10:56:05;;;;;;;7.07;3.90;;;40.40;63.30;;;;;;4977697;28;20085;-71
2023/07/10 10:58:38;;;;;;;7.50;3.95;;;40.70;63.60;;;;;;4995221;28;20029;-71
2023/07/10 11:01:56;;;;;;;4.93;4.10;;;41.10;62.90;;;;;;4976590;28;20026;-71
2023/07/10 11:04:31;;;;;;;6.45;4.57;;;41.10;62.90;;;;;;4975398;28;20041;-71
2023/07/10 11:07:02;;;;;;;4.57;4.00;;;40.60;63.50;;;;;;4994613;28;20093;-70
2023/07/10 11:09:52;;;;;;;5.80;3.95;;;40.30;64.30;;;;;;4995160;28;20030;-71
2023/07/10 11:12:27;;;;;;;11.65;4.38;;;40.40;63.50;;;;;;4977443;28;20475;-71
2023/07/10 11:14:59;;;;;;;9.48;4.28;;;40.30;63.90;;;;;;4994798;28;20038;-71
2023/07/10 11:17:25;;;;;;;7.60;3.70;;;39.60;63.80;;;;;;4994731;28;20022;-71
2023/07/10 11:19:52;;;;;;;6.70;4.00;;;38.30;64.70;;;;;;4977648;28;20033;-71
2023/07/10 11:22:31;;;;;;;6.10;4.03;;;37.40;66.50;;;;;;4994538;28;20506;-71
2023/07/10 11:24:58;;;;;;;9.48;4.75;;;36.60;68.50;;;;;;4976996;28;20034;-71
2023/07/10 11:27:30;;;;;;;7.13;3.70;;;35.80;69.50;;;;;;4977076;28;20073;-71
2023/07/10 11:30:04;;;;;;;6.85;4.35;;;35.10;69.50;;;;;;4994854;28;20073;-71
2023/07/10 11:32:35;;;;;;;9.73;4.10;;;34.90;70.40;;;;;;4977151;28;20018;-71
2023/07/10 11:35:16;;;;;;;8.98;3.80;;;34.60;70.80;;;;;;4976860;28;20038;-71
2023/07/10 11:37:47;;;;;;;5.03;3.85;;;34.50;70.80;;;;;;4994439;28;20614;-71
2023/07/10 11:40:28;;;;;;;4.85;4.07;;;34.10;70.80;;;;;;4976932;28;20030;-71
2023/07/10 11:43:02;;;;;;;5.35;4.00;;;34.00;71.60;;;;;;4976779;28;20085;-71
2023/07/10 11:45:44;;;;;;;5.75;3.70;;;33.80;72.50;;;;;;4990550;28;20563;-71
2023/07/10 11:48:39;;;;;;;4.43;3.35;;;33.50;72.50;;;;;;4975013;28;20081;-71
2023/07/10 11:51:27;;;;;;;8.98;3.95;;;33.40;71.60;;;;;;4974781;28;20462;-71
2023/07/10 11:54:05;;;;;;;5.32;4.10;;;33.30;71.80;;;;;;4974486;28;20457;-71
2023/07/10 11:56:31;;;;;;;7.25;4.60;;;33.30;72.00;;;;;;4974431;28;20066;-71
2023/07/10 11:59:14;;;;;;;5.53;3.88;;;33.40;71.90;;;;;;4974435;28;20023;-71
2023/07/10 12:01:41;;;;;;;5.50;3.78;;;33.40;70.80;;;;;;4974225;28;20026;-70
2023/07/10 12:04:14;;;;;;;7.63;4.13;;;33.20;70.80;;;;;;4956951;28;20030;-71
2023/07/10 12:06:44;;;;;;;5.45;4.03;;;33.20;71.10;;;;;;4957001;28;20387;-70
2023/07/10 12:09:10;;;;;;;6.15;4.45;;;33.30;71.10;;;;;;4957271;28;20129;-71
2023/07/10 12:11:38;;;;;;;7.70;3.75;;;33.30;71.00;;;;;;4974414;28;20109;-71
2023/07/10 12:14:16;;;;;;;6.45;4.45;;;33.40;71.30;;;;;;4974840;28;20420;-72
2023/07/10 12:16:57;;;;;;;6.95;4.03;;;33.30;71.70;;;;;;4974595;28;20483;-71
2023/07/10 12:19:31;;;;;;;5.53;4.00;;;33.20;72.20;;;;;;4957093;28;20086;-71
2023/07/10 12:22:01;;;;;;;5.93;4.15;;;33.10;71.60;;;;;;4956892;28;20054;-71
2023/07/10 12:24:27;;;;;;;5.25;4.03;;;33.20;71.00;;;;;;4974381;28;20098;-70
2023/07/10 12:26:58;;;;;;;6.68;4.20;;;33.00;70.80;;;;;;4956475;28;20196;-70
2023/07/10 12:29:24;;;;;;;6.97;4.70;;;32.90;71.00;;;;;;4956801;28;20030;-70
2023/07/10 12:31:49;;;;;;;6.78;3.72;;;33.20;71.60;;;;;;4956427;28;20345;-70
2023/07/10 12:34:25;;;;;;;8.50;4.28;;;33.20;71.40;;;;;;4974335;28;20448;-71
2023/07/10 12:36:53;;;;;;;8.27;4.00;;;33.30;70.50;;;;;;4956763;28;20034;-71
2023/07/10 12:39:20;;;;;;;5.38;3.80;;;33.20;70.30;;;;;;4974476;28;20043;-71
2023/07/10 12:41:46;;;;;;;7.18;3.65;;;33.20;69.20;;;;;;4975099;28;20027;-71
2023/07/10 12:44:21;;;;;;;8.50;3.72;;;33.20;69.70;;;;;;4974969;28;20073;-70
2023/07/10 12:47:13;;;;;;;7.25;4.07;;;33.10;69.60;;;;;;4957414;28;20023;-70
2023/07/10 12:49:38;;;;;;;7.57;3.47;;;33.10;69.30;;;;;;4973786;28;20037;-70
2023/07/10 12:52:06;;;;;;;5.70;3.67;;;33.00;68.50;;;;;;4974013;28;20395;-70
2023/07/10 12:54:39;;;;;;;5.80;3.38;;;33.00;68.70;;;;;;4956512;28;20395;-70
2023/07/10 12:57:13;;;;;;;7.38;3.50;;;33.10;68.70;;;;;;4974499;28;20023;-69
2023/07/10 12:59:39;;;;;;;6.88;3.80;;;33.20;67.60;;;;;;4974030;28;20062;-70
2023/07/10 13:02:23;;;;;;;7.07;3.67;;;33.30;66.30;;;;;;4973927;28;20054;-70
2023/07/10 13:04:54;;;;;;;5.70;3.47;;;33.30;66.50;;;;;;4956731;28;20031;-71
2023/07/10 13:07:23;;;;;;;5.18;3.63;;;33.30;66.10;;;;;;4974041;28;20042;-71
2023/07/10 13:09:57;;;;;;;5.38;3.85;;;33.30;66.20;;;;;;4973945;28;20127;-70
2023/07/10 13:12:28;;;;;;;4.78;3.55;;;33.30;66.00;;;;;;4956540;28;20030;-70
2023/07/10 13:14:54;;;;;;;6.63;3.67;;;33.30;65.70;;;;;;4956564;28;20038;-70
2023/07/10 13:17:25;;;;;;;6.65;3.80;;;33.20;66.20;;;;;;4973739;28;20035;-71
2023/07/10 13:19:50;;;;;;;7.28;3.45;;;33.30;66.00;;;;;;4973881;28;20051;-70
2023/07/10 13:22:16;;;;;;;6.38;3.67;;;33.30;65.90;;;;;;4973700;28;20066;-70
2023/07/10 13:24:42;;;;;;;4.53;3.45;;;33.30;65.00;;;;;;4958260;28;20045;-69
2023/07/10 13:27:21;;;;;;;7.53;4.00;;;33.20;64.70;;;;;;4977367;28;20042;-70
2023/07/10 13:29:47;;;;;;;4.93;3.10;;;33.40;65.00;;;;;;4960127;28;20062;-71
2023/07/10 13:32:15;;;;;;;7.20;3.20;;;33.40;65.30;;;;;;4977061;28;20059;-70
2023/07/10 13:34:41;;;;;;;5.68;3.55;;;33.40;65.20;;;;;;4977101;28;20444;-70
2023/07/10 13:37:21;;;;;;;6.88;3.33;;;33.40;65.20;;;;;;4959597;28;20448;-70
2023/07/10 13:39:47;;;;;;;5.50;3.55;;;33.50;64.30;;;;;;4959790;28;20031;-70
2023/07/10 13:42:13;;;;;;;5.43;3.03;;;33.40;64.80;;;;;;4977301;28;20109;-69
2023/07/10 13:44:41;;;;;;;7.57;3.22;;;33.40;65.20;;;;;;4977027;28;20071;-69
2023/07/10 13:47:19;;;;;;;5.18;2.90;;;33.40;64.80;;;;;;4976232;28;20023;-69
2023/07/10 13:49:45;;;;;;;5.43;3.20;;;33.40;64.40;;;;;;4996646;28;20365;-69
2023/07/10 13:52:17;;;;;;;8.43;3.15;;;33.40;64.30;;;;;;4996677;28;20127;-69
2023/07/10 13:54:44;;;;;;;4.65;3.10;;;33.30;63.80;;;;;;4996244;28;20041;-69
2023/07/10 13:57:22;;;;;;;4.63;3.38;;;33.30;64.10;;;;;;4996719;28;20042;-69
2023/07/10 13:59:48;;;;;;;6.53;3.40;;;33.20;64.40;;;;;;4978877;28;20177;-69
2023/07/10 14:02:28;;;;;;;6.03;3.50;;;33.10;65.30;;;;;;4996048;28;20117;-69
2023/07/10 14:04:59;;;;;;;7.03;3.28;;;33.30;65.10;;;;;;4996339;28;20123;-68
2023/07/10 14:07:28;;;;;;;4.35;3.33;;;33.30;64.90;;;;;;4996063;28;20030;-68
2023/07/10 14:09:58;;;;;;;4.22;3.20;;;33.30;65.00;;;;;;4996588;28;20018;-69
2023/07/10 14:12:27;;;;;;;5.20;2.85;;;33.20;64.50;;;;;;4997217;28;20018;-70
2023/07/10 14:14:52;;;;;;;4.60;3.08;;;33.30;64.80;;;;;;4997200;28;20569;-69
2023/07/10 14:17:30;;;;;;;4.55;3.30;;;33.10;64.30;;;;;;4997342;28;20026;-69
2023/07/10 14:19:56;;;;;;;4.32;3.10;;;33.20;63.00;;;;;;4980739;28;20030;-69
2023/07/10 14:22:23;;;;;;;6.43;3.55;;;33.30;63.30;;;;;;4997149;28;20529;-69
2023/07/10 14:24:48;;;;;;;6.65;3.15;;;33.30;62.90;;;;;;4979341;28;20057;-69
2023/07/10 14:27:22;;;;;;;7.22;3.30;;;33.30;63.00;;;;;;4996616;28;20479;-70
2023/07/10 14:29:49;;;;;;;4.63;2.78;;;33.40;63.30;;;;;;4996363;28;20026;-70
2023/07/10 14:32:17;;;;;;;4.07;2.83;;;33.40;63.30;;;;;;4996315;28;20069;-70
2023/07/10 14:34:43;;;;;;;7.63;3.17;;;33.30;63.30;;;;;;4995946;28;20045;-70
2023/07/10 14:37:17;;;;;;;4.90;3.50;;;33.30;62.90;;;;;;4995772;28;20022;-70
2023/07/10 14:39:43;;;;;;;6.50;3.30;;;33.30;63.70;;;;;;4996811;28;20030;-70
2023/07/10 14:42:17;;;;;;;4.32;2.75;;;33.30;62.60;;;;;;4997159;28;20109;-70
2023/07/10 14:44:43;;;;;;;6.13;3.10;;;33.40;63.00;;;;;;4979409;28;20026;-69
2023/07/10 14:47:32;;;;;;;4.05;3.30;;;33.40;63.40;;;;;;4979085;28;20176;-70
2023/07/10 14:49:58;;;;;;;4.20;3.58;;;33.30;63.10;;;;;;4992325;28;20047;-70
2023/07/10 14:52:27;;;;;;;4.72;3.30;;;33.20;63.10;;;;;;4977407;28;20042;-69
2023/07/10 14:54:55;;;;;;;5.75;3.10;;;33.10;63.40;;;;;;4980617;28;20023;-70
2023/07/10 14:57:28;;;;;;;9.10;3.28;;;33.20;63.00;;;;;;4984120;28;20475;-70
2023/07/10 14:59:54;;;;;;;7.22;3.15;;;33.20;62.60;;;;;;4977808;28;20033;-69
2023/07/10 15:02:23;;;;;;;5.85;3.10;;;33.20;62.50;;;;;;4995208;28;20023;-70
2023/07/10 15:04:50;;;;;;;5.53;3.10;;;33.20;62.10;;;;;;4994943;28;20030;-70
2023/07/10 15:07:17;;;;;;;4.53;3.15;;;33.20;60.70;;;;;;4977876;28;20058;-70
2023/07/10 15:09:43;;;;;;;4.53;3.10;;;33.20;61.20;;;;;;4978473;28;20365;-69
2023/07/10 15:12:17;;;;;;;4.53;2.95;;;33.30;61.40;;;;;;4978117;28;20034;-68
2023/07/10 15:14:44;;;;;;;3.38;3.05;;;33.20;61.60;;;;;;4977963;28;20034;-69
2023/07/10 15:17:30;;;;;;;4.43;2.80;;;33.10;61.50;;;;;;4977598;28;20049;-69
2023/07/10 15:19:55;;;;;;;5.32;3.08;;;32.90;61.60;;;;;;4994923;28;20034;-70
2023/07/10 15:22:21;;;;;;;3.08;2.42;;;32.80;62.20;;;;;;4995446;28;20050;-70
2023/07/10 15:24:49;;;;;;;4.65;3.03;;;32.90;62.50;;;;;;4995412;28;20029;-70
2023/07/10 15:27:14;;;;;;;5.03;2.90;;;32.80;62.30;;;;;;4994819;28;20039;-70
2023/07/10 15:29:42;;;;;;;5.07;3.10;;;32.80;62.40;;;;;;4977135;28;20019;-70
2023/07/10 15:32:17;;;;;;;4.45;3.50;;;32.80;62.50;;;;;;4994136;28;20054;-70
2023/07/10 15:34:44;;;;;;;4.10;2.83;;;32.80;62.60;;;;;;4977124;28;20113;-69
2023/07/10 15:37:21;;;;;;;5.32;3.70;;;32.80;62.70;;;;;;4994370;28;20069;-70
2023/07/10 15:39:48;;;;;;;8.60;3.10;;;32.80;62.60;;;;;;4976741;28;20026;-70
2023/07/10 15:42:18;;;;;;;5.35;3.13;;;32.80;62.80;;;;;;4994546;28;20049;-70
2023/07/10 15:44:45;;;;;;;3.55;3.03;;;32.70;63.40;;;;;;4977843;28;20022;-71
2023/07/10 15:47:20;;;;;;;6.63;3.10;;;32.60;63.00;;;;;;4959138;28;20480;-70
2023/07/10 15:49:46;;;;;;;6.32;4.10;;;32.60;63.20;;;;;;4974990;28;20377;-70
2023/07/10 15:52:32;;;;;;;5.32;4.00;;;32.60;62.70;;;;;;4957648;28;20019;-70
2023/07/10 15:55:13;;;;;;;3.78;2.80;;;32.60;63.30;;;;;;4975208;28;20027;-70
2023/07/10 15:57:38;;;;;;;5.63;3.40;;;32.80;63.40;;;;;;4956550;28;20408;-70
2023/07/10 16:00:07;;;;;;;6.97;4.57;;;32.80;63.30;;;;;;4957695;28;20026;-70
2023/07/10 16:02:32;;;;;;;4.88;3.17;;;32.60;63.10;;;;;;4957801;28;20379;-69
2023/07/10 16:04:58;;;;;;;4.88;3.20;;;32.50;62.70;;;;;;4957392;28;20026;-69
2023/07/10 16:07:23;;;;;;;7.60;3.00;;;32.50;62.70;;;;;;4975034;28;20117;-70
2023/07/10 16:09:49;;;;;;;4.03;2.80;;;32.50;62.70;;;;;;4977179;28;20025;-70
2023/07/10 16:12:16;;;;;;;5.10;3.25;;;32.40;62.80;;;;;;4965111;28;20030;-69
2023/07/10 16:14:42;;;;;;;5.00;3.10;;;32.30;62.70;;;;;;4977765;28;20539;-71
2023/07/10 16:17:16;;;;;;;5.97;2.95;;;32.20;63.50;;;;;;4978842;28;20050;-73
2023/07/10 16:19:42;;;;;;;7.55;2.90;;;32.20;63.10;;;;;;4973281;28;20035;-71
2023/07/10 16:22:14;;;;;;;3.20;2.80;;;32.20;63.50;;;;;;4973543;28;20027;-70
2023/07/10 16:24:42;;;;;;;4.00;2.83;;;32.20;63.00;;;;;;4973297;28;20019;-70
2023/07/10 16:27:12;;;;;;;5.05;2.80;;;32.40;63.50;;;;;;4975679;28;20500;-70
2023/07/10 16:29:38;;;;;;;5.10;3.08;;;32.30;63.00;;;;;;4978298;28;20038;-71
2023/07/10 16:32:13;;;;;;;5.13;2.90;;;32.30;62.80;;;;;;4980291;28;20034;-70
2023/07/10 16:34:39;;;;;;;5.35;2.63;;;32.40;63.00;;;;;;4962796;28;20027;-71
2023/07/10 16:37:13;;;;;;;4.10;3.20;;;32.40;62.80;;;;;;4980471;28;20046;-71
2023/07/10 16:39:39;;;;;;;5.05;3.33;;;32.30;62.40;;;;;;4961806;28;20089;-70
2023/07/10 16:42:13;;;;;;;3.83;2.75;;;32.20;62.50;;;;;;4975014;28;20038;-71
2023/07/10 16:44:39;;;;;;;5.60;3.42;;;32.10;63.10;;;;;;4984169;28;20044;-71
2023/07/10 16:47:16;;;;;;;4.75;3.20;;;32.00;63.60;;;;;;4993722;28;20379;-71
2023/07/10 16:49:42;;;;;;;4.85;3.00;;;31.90;64.00;;;;;;4994170;28;20049;-70
2023/07/10 16:52:11;;;;;;;7.95;3.17;;;31.80;64.00;;;;;;4993607;28;20023;-71
2023/07/10 16:54:37;;;;;;;5.97;2.92;;;31.80;64.00;;;;;;4993970;28;20078;-71
2023/07/10 16:57:04;;;;;;;5.40;3.10;;;31.70;64.10;;;;;;4975938;28;20061;-70
2023/07/10 16:59:30;;;;;;;4.57;2.90;;;31.70;64.10;;;;;;4995490;28;20360;-70
2023/07/10 17:01:57;;;;;;;4.63;3.13;;;31.80;63.80;;;;;;4979749;28;20026;-71
2023/07/10 17:04:23;;;;;;;6.20;3.30;;;31.60;63.80;;;;;;4997534;28;20029;-71
2023/07/10 17:06:51;;;;;;;4.25;3.20;;;31.60;64.00;;;;;;4997748;28;20030;-70